sensor_id;sensor_type;location;lat;lon;timestamp;temperature;humidity
52859;DHT22;38721;53.098;6.596;2023-01-15T00:00:41;6.60;99.90
52859;DHT22;38721;53.098;6.596;2023-01-15T00:03:07;6.60;99.90
52859;DHT22;38721;53.098;6.596;2023-01-15T00:05:36;6.60;99.90
52859;DHT22;38721;53.098;6.596;2023-01-15T00:08:02;6.60;99.90
52859;DHT22;38721;53.098;6.596;2023-01-15T00:10:28;6.50;99.90
52859;DHT22;38721;53.098;6.596;2023-01-15T00:12:53;6.60;99.90
52859;DHT22;38721;53.098;6.596;2023-01-15T00:15:19;6.60;99.90
52859;DHT22;38721;53.098;6.596;2023-01-15T00:17:44;6.60;99.90
52859;DHT22;38721;53.098;6.596;2023-01-15T00:20:10;6.50;99.90
52859;DHT22;38721;53.098;6.596;2023-01-15T00:22:39;6.60;99.90
52859;DHT22;38721;53.098;6.596;2023-01-15T00:25:05;6.60;99.90
52859;DHT22;38721;53.098;6.596;2023-01-15T00:27:50;6.50;99.90
52859;DHT22;38721;53.098;6.596;2023-01-15T00:30:16;6.50;99.90
52859;DHT22;38721;53.098;6.596;2023-01-15T00:32:43;6.60;99.90
52859;DHT22;38721;53.098;6.596;2023-01-15T00:35:14;6.60;99.90
52859;DHT22;38721;53.098;6.596;2023-01-15T00:37:40;6.60;99.90
52859;DHT22;38721;53.098;6.596;2023-01-15T00:40:07;6.60;99.90
52859;DHT22;38721;53.098;6.596;2023-01-15T00:42:33;6.50;99.90
52859;DHT22;38721;53.098;6.596;2023-01-15T00:44:58;6.60;99.90
52859;DHT22;38721;53.098;6.596;2023-01-15T00:47:30;6.50;99.90
52859;DHT22;38721;53.098;6.596;2023-01-15T00:49:56;6.50;99.90
52859;DHT22;38721;53.098;6.596;2023-01-15T00:52:21;6.50;99.90
52859;DHT22;38721;53.098;6.596;2023-01-15T00:54:47;6.60;99.90
52859;DHT22;38721;53.098;6.596;2023-01-15T00:57:13;6.50;99.90
52859;DHT22;38721;53.098;6.596;2023-01-15T00:59:38;6.50;99.90
52859;DHT22;38721;53.098;6.596;2023-01-15T01:02:04;6.60;99.90
52859;DHT22;38721;53.098;6.596;2023-01-15T01:04:30;6.60;99.90
52859;DHT22;38721;53.098;6.596;2023-01-15T01:06:55;6.60;99.90
52859;DHT22;38721;53.098;6.596;2023-01-15T01:09:21;6.60;99.90
52859;DHT22;38721;53.098;6.596;2023-01-15T01:11:48;6.60;99.90
52859;DHT22;38721;53.098;6.596;2023-01-15T01:14:14;6.60;99.90
52859;DHT22;38721;53.098;6.596;2023-01-15T01:16:40;6.70;99.90
52859;DHT22;38721;53.098;6.596;2023-01-15T01:19:16;6.60;99.90
52859;DHT22;38721;53.098;6.596;2023-01-15T01:21:42;6.60;99.90
52859;DHT22;38721;53.098;6.596;2023-01-15T01:24:17;6.50;99.90
52859;DHT22;38721;53.098;6.596;2023-01-15T01:26:44;6.50;99.90
52859;DHT22;38721;53.098;6.596;2023-01-15T01:29:16;6.50;99.90
52859;DHT22;38721;53.098;6.596;2023-01-15T01:31:42;6.60;99.90
52859;DHT22;38721;53.098;6.596;2023-01-15T01:34:08;6.60;99.90
52859;DHT22;38721;53.098;6.596;2023-01-15T01:36:36;6.60;99.90
52859;DHT22;38721;53.098;6.596;2023-01-15T01:39:04;6.60;99.90
52859;DHT22;38721;53.098;6.596;2023-01-15T01:41:30;6.70;99.90
52859;DHT22;38721;53.098;6.596;2023-01-15T01:46:26;6.60;99.90
52859;DHT22;38721;53.098;6.596;2023-01-15T01:49:04;6.60;99.90
52859;DHT22;38721;53.098;6.596;2023-01-15T01:51:36;6.50;99.90
52859;DHT22;38721;53.098;6.596;2023-01-15T01:54:04;6.50;99.90
52859;DHT22;38721;53.098;6.596;2023-01-15T01:56:32;6.50;99.90
52859;DHT22;38721;53.098;6.596;2023-01-15T01:58:59;6.50;99.90
52859;DHT22;38721;53.098;6.596;2023-01-15T02:01:25;6.50;99.90
52859;DHT22;38721;53.098;6.596;2023-01-15T02:03:52;6.60;99.90
52859;DHT22;38721;53.098;6.596;2023-01-15T02:06:18;6.50;99.90
52859;DHT22;38721;53.098;6.596;2023-01-15T02:08:43;6.50;99.90
52859;DHT22;38721;53.098;6.596;2023-01-15T02:11:16;6.50;99.90
52859;DHT22;38721;53.098;6.596;2023-01-15T02:14:03;6.50;99.90
52859;DHT22;38721;53.098;6.596;2023-01-15T02:16:53;6.50;99.90
52859;DHT22;38721;53.098;6.596;2023-01-15T02:19:46;6.50;99.90
52859;DHT22;38721;53.098;6.596;2023-01-15T02:27:55;6.50;99.90
52859;DHT22;38721;53.098;6.596;2023-01-15T02:30:33;6.50;99.90
52859;DHT22;38721;53.098;6.596;2023-01-15T02:33:29;6.60;99.90
52859;DHT22;38721;53.098;6.596;2023-01-15T02:35:58;6.50;99.90
52859;DHT22;38721;53.098;6.596;2023-01-15T02:38:31;6.60;99.90
52859;DHT22;38721;53.098;6.596;2023-01-15T02:41:01;6.60;99.90
52859;DHT22;38721;53.098;6.596;2023-01-15T02:43:32;6.60;99.90
52859;DHT22;38721;53.098;6.596;2023-01-15T02:46:01;6.60;99.90
52859;DHT22;38721;53.098;6.596;2023-01-15T02:48:32;6.70;99.90
52859;DHT22;38721;53.098;6.596;2023-01-15T02:51:04;6.70;99.90
52859;DHT22;38721;53.098;6.596;2023-01-15T02:53:32;6.70;99.90
52859;DHT22;38721;53.098;6.596;2023-01-15T02:56:10;6.70;99.90
52859;DHT22;38721;53.098;6.596;2023-01-15T02:58:39;6.70;99.90
52859;DHT22;38721;53.098;6.596;2023-01-15T03:01:11;6.70;99.90
52859;DHT22;38721;53.098;6.596;2023-01-15T03:06:35;6.70;99.90
52859;DHT22;38721;53.098;6.596;2023-01-15T03:09:06;6.70;99.90
52859;DHT22;38721;53.098;6.596;2023-01-15T03:11:38;6.60;99.90
52859;DHT22;38721;53.098;6.596;2023-01-15T03:14:18;6.50;99.90
52859;DHT22;38721;53.098;6.596;2023-01-15T03:17:11;6.60;99.90
52859;DHT22;38721;53.098;6.596;2023-01-15T03:19:48;6.60;99.90
52859;DHT22;38721;53.098;6.596;2023-01-15T03:22:27;6.60;99.90
52859;DHT22;38721;53.098;6.596;2023-01-15T03:25:04;6.60;99.90
52859;DHT22;38721;53.098;6.596;2023-01-15T03:27:32;6.60;99.90
52859;DHT22;38721;53.098;6.596;2023-01-15T03:30:03;6.60;99.90
52859;DHT22;38721;53.098;6.596;2023-01-15T03:32:32;6.60;99.90
52859;DHT22;38721;53.098;6.596;2023-01-15T03:34:58;6.60;99.90
52859;DHT22;38721;53.098;6.596;2023-01-15T03:37:26;6.60;99.90
52859;DHT22;38721;53.098;6.596;2023-01-15T03:39:53;6.60;99.90
52859;DHT22;38721;53.098;6.596;2023-01-15T03:50:52;6.50;99.90
52859;DHT22;38721;53.098;6.596;2023-01-15T03:53:41;6.60;99.90
52859;DHT22;38721;53.098;6.596;2023-01-15T03:58:47;6.60;99.90
52859;DHT22;38721;53.098;6.596;2023-01-15T04:01:18;6.60;99.90
52859;DHT22;38721;53.098;6.596;2023-01-15T04:03:47;6.50;99.90
52859;DHT22;38721;53.098;6.596;2023-01-15T04:06:14;6.60;99.90
52859;DHT22;38721;53.098;6.596;2023-01-15T04:08:41;6.50;99.90
52859;DHT22;38721;53.098;6.596;2023-01-15T04:11:08;6.50;99.90
52859;DHT22;38721;53.098;6.596;2023-01-15T04:13:36;6.50;99.90
52859;DHT22;38721;53.098;6.596;2023-01-15T04:16:02;6.50;99.90
52859;DHT22;38721;53.098;6.596;2023-01-15T04:18:28;6.40;99.90
52859;DHT22;38721;53.098;6.596;2023-01-15T04:20:56;6.40;99.90
52859;DHT22;38721;53.098;6.596;2023-01-15T04:23:22;6.40;99.90
52859;DHT22;38721;53.098;6.596;2023-01-15T04:25:48;6.40;99.90
52859;DHT22;38721;53.098;6.596;2023-01-15T04:28:14;6.40;99.90
52859;DHT22;38721;53.098;6.596;2023-01-15T04:30:39;6.40;99.90
52859;DHT22;38721;53.098;6.596;2023-01-15T04:33:07;6.40;99.90
52859;DHT22;38721;53.098;6.596;2023-01-15T04:35:33;6.40;99.90
52859;DHT22;38721;53.098;6.596;2023-01-15T04:38:00;6.30;99.90
52859;DHT22;38721;53.098;6.596;2023-01-15T04:40:26;6.40;99.90
52859;DHT22;38721;53.098;6.596;2023-01-15T04:43:13;6.30;99.90
52859;DHT22;38721;53.098;6.596;2023-01-15T04:45:58;6.40;99.90
52859;DHT22;38721;53.098;6.596;2023-01-15T04:48:25;6.30;99.90
52859;DHT22;38721;53.098;6.596;2023-01-15T04:50:51;6.30;99.90
52859;DHT22;38721;53.098;6.596;2023-01-15T04:53:16;6.20;99.90
52859;DHT22;38721;53.098;6.596;2023-01-15T04:55:42;6.20;99.90
52859;DHT22;38721;53.098;6.596;2023-01-15T04:58:08;6.20;99.90
52859;DHT22;38721;53.098;6.596;2023-01-15T05:00:33;6.30;99.90
52859;DHT22;38721;53.098;6.596;2023-01-15T05:02:59;6.30;99.90
52859;DHT22;38721;53.098;6.596;2023-01-15T05:05:25;6.20;99.90
52859;DHT22;38721;53.098;6.596;2023-01-15T05:07:50;6.20;99.90
52859;DHT22;38721;53.098;6.596;2023-01-15T05:10:16;6.20;99.90
52859;DHT22;38721;53.098;6.596;2023-01-15T05:12:42;6.10;99.90
52859;DHT22;38721;53.098;6.596;2023-01-15T05:15:08;6.10;99.90
52859;DHT22;38721;53.098;6.596;2023-01-15T05:17:36;6.10;99.90
52859;DHT22;38721;53.098;6.596;2023-01-15T05:20:02;6.10;99.90
52859;DHT22;38721;53.098;6.596;2023-01-15T05:22:31;6.10;99.90
52859;DHT22;38721;53.098;6.596;2023-01-15T05:24:56;6.00;99.90
52859;DHT22;38721;53.098;6.596;2023-01-15T05:27:22;6.00;99.90
52859;DHT22;38721;53.098;6.596;2023-01-15T05:29:48;6.00;99.90
52859;DHT22;38721;53.098;6.596;2023-01-15T05:32:16;6.00;99.90
52859;DHT22;38721;53.098;6.596;2023-01-15T05:34:42;6.00;99.90
52859;DHT22;38721;53.098;6.596;2023-01-15T05:37:08;6.00;99.90
52859;DHT22;38721;53.098;6.596;2023-01-15T05:39:33;6.00;99.90
52859;DHT22;38721;53.098;6.596;2023-01-15T05:41:59;5.90;99.90
52859;DHT22;38721;53.098;6.596;2023-01-15T05:44:26;5.90;99.90
52859;DHT22;38721;53.098;6.596;2023-01-15T05:46:58;5.90;99.90
52859;DHT22;38721;53.098;6.596;2023-01-15T05:49:25;6.00;99.90
52859;DHT22;38721;53.098;6.596;2023-01-15T05:51:52;5.90;99.90
52859;DHT22;38721;53.098;6.596;2023-01-15T05:54:24;5.90;99.90
52859;DHT22;38721;53.098;6.596;2023-01-15T05:56:51;5.90;99.90
52859;DHT22;38721;53.098;6.596;2023-01-15T05:59:19;5.90;99.90
52859;DHT22;38721;53.098;6.596;2023-01-15T06:01:45;5.80;99.90
52859;DHT22;38721;53.098;6.596;2023-01-15T06:04:11;5.90;99.90
52859;DHT22;38721;53.098;6.596;2023-01-15T06:06:42;5.90;99.90
52859;DHT22;38721;53.098;6.596;2023-01-15T06:09:08;5.90;99.90
52859;DHT22;38721;53.098;6.596;2023-01-15T06:11:34;5.90;99.90
52859;DHT22;38721;53.098;6.596;2023-01-15T06:13:59;5.80;99.90
52859;DHT22;38721;53.098;6.596;2023-01-15T06:16:25;5.80;99.90
52859;DHT22;38721;53.098;6.596;2023-01-15T06:18:51;5.70;99.90
52859;DHT22;38721;53.098;6.596;2023-01-15T06:21:20;5.70;99.90
52859;DHT22;38721;53.098;6.596;2023-01-15T06:23:46;5.60;99.90
52859;DHT22;38721;53.098;6.596;2023-01-15T06:26:14;5.60;99.90
52859;DHT22;38721;53.098;6.596;2023-01-15T06:28:41;5.60;99.90
52859;DHT22;38721;53.098;6.596;2023-01-15T06:31:09;5.60;99.90
52859;DHT22;38721;53.098;6.596;2023-01-15T06:33:38;5.50;99.90
52859;DHT22;38721;53.098;6.596;2023-01-15T06:36:08;5.60;99.90
52859;DHT22;38721;53.098;6.596;2023-01-15T06:38:35;5.60;99.90
52859;DHT22;38721;53.098;6.596;2023-01-15T06:41:03;5.60;99.90
52859;DHT22;38721;53.098;6.596;2023-01-15T06:43:29;5.60;99.90
52859;DHT22;38721;53.098;6.596;2023-01-15T06:46:13;5.60;99.90
52859;DHT22;38721;53.098;6.596;2023-01-15T06:48:59;5.60;99.90
52859;DHT22;38721;53.098;6.596;2023-01-15T06:51:24;5.60;99.90
52859;DHT22;38721;53.098;6.596;2023-01-15T06:53:50;5.60;99.90
52859;DHT22;38721;53.098;6.596;2023-01-15T06:56:19;5.60;99.90
52859;DHT22;38721;53.098;6.596;2023-01-15T06:58:44;5.60;99.90
52859;DHT22;38721;53.098;6.596;2023-01-15T07:01:12;5.60;99.90
52859;DHT22;38721;53.098;6.596;2023-01-15T07:03:38;5.60;99.90
52859;DHT22;38721;53.098;6.596;2023-01-15T07:06:09;5.70;99.90
52859;DHT22;38721;53.098;6.596;2023-01-15T07:08:35;5.70;99.90
52859;DHT22;38721;53.098;6.596;2023-01-15T07:11:06;5.70;99.90
52859;DHT22;38721;53.098;6.596;2023-01-15T07:13:32;5.60;99.90
52859;DHT22;38721;53.098;6.596;2023-01-15T07:16:00;5.60;99.90
52859;DHT22;38721;53.098;6.596;2023-01-15T07:18:27;5.50;99.90
52859;DHT22;38721;53.098;6.596;2023-01-15T07:20:54;5.50;99.90
52859;DHT22;38721;53.098;6.596;2023-01-15T07:23:22;5.60;99.90
52859;DHT22;38721;53.098;6.596;2023-01-15T07:25:48;5.60;99.90
52859;DHT22;38721;53.098;6.596;2023-01-15T07:28:16;5.60;99.90
52859;DHT22;38721;53.098;6.596;2023-01-15T07:30:42;5.50;99.90
52859;DHT22;38721;53.098;6.596;2023-01-15T07:33:07;5.60;99.90
52859;DHT22;38721;53.098;6.596;2023-01-15T07:35:34;5.80;99.90
52859;DHT22;38721;53.098;6.596;2023-01-15T07:38:01;5.70;99.90
52859;DHT22;38721;53.098;6.596;2023-01-15T07:40:27;5.70;99.90
52859;DHT22;38721;53.098;6.596;2023-01-15T07:42:53;5.70;99.90
52859;DHT22;38721;53.098;6.596;2023-01-15T07:45:41;5.80;99.90
52859;DHT22;38721;53.098;6.596;2023-01-15T07:48:31;5.70;99.90
52859;DHT22;38721;53.098;6.596;2023-01-15T07:51:15;5.70;99.90
52859;DHT22;38721;53.098;6.596;2023-01-15T07:53:41;5.60;99.90
52859;DHT22;38721;53.098;6.596;2023-01-15T07:56:07;5.60;99.90
52859;DHT22;38721;53.098;6.596;2023-01-15T07:58:33;5.50;25.00
52859;DHT22;38721;53.098;6.596;2023-01-15T08:00:58;5.60;1.00
52859;DHT22;38721;53.098;6.596;2023-01-15T08:03:24;5.60;1.00
52859;DHT22;38721;53.098;6.596;2023-01-15T08:05:52;5.60;99.90
52859;DHT22;38721;53.098;6.596;2023-01-15T08:08:18;5.60;99.90
52859;DHT22;38721;53.098;6.596;2023-01-15T08:10:44;5.60;99.90
52859;DHT22;38721;53.098;6.596;2023-01-15T08:13:28;5.60;99.90
52859;DHT22;38721;53.098;6.596;2023-01-15T08:16:16;5.70;99.90
52859;DHT22;38721;53.098;6.596;2023-01-15T08:18:41;5.60;99.90
52859;DHT22;38721;53.098;6.596;2023-01-15T08:21:13;5.60;99.90
52859;DHT22;38721;53.098;6.596;2023-01-15T08:23:39;5.70;99.90
52859;DHT22;38721;53.098;6.596;2023-01-15T08:26:07;5.70;99.90
52859;DHT22;38721;53.098;6.596;2023-01-15T08:28:33;5.80;99.90
52859;DHT22;38721;53.098;6.596;2023-01-15T08:30:59;5.90;99.90
52859;DHT22;38721;53.098;6.596;2023-01-15T08:33:24;5.80;99.90
52859;DHT22;38721;53.098;6.596;2023-01-15T08:35:50;5.80;1.00
52859;DHT22;38721;53.098;6.596;2023-01-15T08:38:15;5.50;99.90
52859;DHT22;38721;53.098;6.596;2023-01-15T08:40:41;5.20;99.90
52859;DHT22;38721;53.098;6.596;2023-01-15T08:43:26;4.80;99.90
52859;DHT22;38721;53.098;6.596;2023-01-15T08:45:54;4.80;99.90
52859;DHT22;38721;53.098;6.596;2023-01-15T08:48:22;4.90;99.90
52859;DHT22;38721;53.098;6.596;2023-01-15T08:50:48;5.00;99.90
52859;DHT22;38721;53.098;6.596;2023-01-15T08:53:15;5.10;99.90
52859;DHT22;38721;53.098;6.596;2023-01-15T08:55:41;5.20;99.90
52859;DHT22;38721;53.098;6.596;2023-01-15T08:58:09;5.30;99.90
52859;DHT22;38721;53.098;6.596;2023-01-15T09:00:35;5.30;99.90
52859;DHT22;38721;53.098;6.596;2023-01-15T09:03:01;5.30;99.90
52859;DHT22;38721;53.098;6.596;2023-01-15T09:05:26;5.40;99.90
52859;DHT22;38721;53.098;6.596;2023-01-15T09:07:55;5.30;99.90
52859;DHT22;38721;53.098;6.596;2023-01-15T09:10:21;5.20;99.90
52859;DHT22;38721;53.098;6.596;2023-01-15T09:12:47;5.30;99.90
52859;DHT22;38721;53.098;6.596;2023-01-15T09:15:13;5.40;99.90
52859;DHT22;38721;53.098;6.596;2023-01-15T09:17:38;5.40;99.90
52859;DHT22;38721;53.098;6.596;2023-01-15T09:20:10;5.40;99.90
52859;DHT22;38721;53.098;6.596;2023-01-15T09:22:35;5.40;99.90
52859;DHT22;38721;53.098;6.596;2023-01-15T09:25:04;5.40;99.90
52859;DHT22;38721;53.098;6.596;2023-01-15T09:27:31;5.40;99.90
52859;DHT22;38721;53.098;6.596;2023-01-15T09:29:58;5.60;99.90
52859;DHT22;38721;53.098;6.596;2023-01-15T09:32:24;5.60;99.90
52859;DHT22;38721;53.098;6.596;2023-01-15T09:34:50;5.70;99.90
52859;DHT22;38721;53.098;6.596;2023-01-15T09:37:15;5.60;99.90
52859;DHT22;38721;53.098;6.596;2023-01-15T09:39:41;5.70;99.90
52859;DHT22;38721;53.098;6.596;2023-01-15T09:45:37;5.70;99.90
52859;DHT22;38721;53.098;6.596;2023-01-15T09:56:49;5.80;99.90
52859;DHT22;38721;53.098;6.596;2023-01-15T09:59:21;5.90;99.90
52859;DHT22;38721;53.098;6.596;2023-01-15T10:01:52;6.00;99.90
52859;DHT22;38721;53.098;6.596;2023-01-15T10:04:33;6.00;99.90
52859;DHT22;38721;53.098;6.596;2023-01-15T10:07:29;6.10;99.90
52859;DHT22;38721;53.098;6.596;2023-01-15T10:10:12;6.20;99.90
52859;DHT22;38721;53.098;6.596;2023-01-15T10:12:39;6.20;99.90
52859;DHT22;38721;53.098;6.596;2023-01-15T10:17:46;6.20;99.90
52859;DHT22;38721;53.098;6.596;2023-01-15T10:20:43;6.10;99.90
52859;DHT22;38721;53.098;6.596;2023-01-15T10:26:35;6.20;99.90
52859;DHT22;38721;53.098;6.596;2023-01-15T10:29:11;6.20;99.90
52859;DHT22;38721;53.098;6.596;2023-01-15T10:31:53;6.30;99.90
52859;DHT22;38721;53.098;6.596;2023-01-15T10:36:57;6.30;99.90
52859;DHT22;38721;53.098;6.596;2023-01-15T10:47:34;6.90;99.90
52859;DHT22;38721;53.098;6.596;2023-01-15T10:50:12;6.90;99.90
52859;DHT22;38721;53.098;6.596;2023-01-15T10:52:40;6.80;99.90
52859;DHT22;38721;53.098;6.596;2023-01-15T10:55:26;6.80;99.90
52859;DHT22;38721;53.098;6.596;2023-01-15T10:58:01;6.80;99.90
52859;DHT22;38721;53.098;6.596;2023-01-15T11:00:32;6.80;99.90
52859;DHT22;38721;53.098;6.596;2023-01-15T11:03:03;6.90;99.90
52859;DHT22;38721;53.098;6.596;2023-01-15T11:05:36;6.90;99.90
52859;DHT22;38721;53.098;6.596;2023-01-15T11:08:06;6.90;99.90
52859;DHT22;38721;53.098;6.596;2023-01-15T11:10:32;6.90;99.90
52859;DHT22;38721;53.098;6.596;2023-01-15T11:13:19;6.90;99.90
52859;DHT22;38721;53.098;6.596;2023-01-15T11:16:03;6.90;99.90
52859;DHT22;38721;53.098;6.596;2023-01-15T11:18:48;6.90;99.90
52859;DHT22;38721;53.098;6.596;2023-01-15T11:21:32;6.90;99.90
52859;DHT22;38721;53.098;6.596;2023-01-15T11:24:14;7.00;99.90
52859;DHT22;38721;53.098;6.596;2023-01-15T11:26:39;7.00;99.90
52859;DHT22;38721;53.098;6.596;2023-01-15T11:29:14;7.20;99.90
52859;DHT22;38721;53.098;6.596;2023-01-15T11:31:44;7.10;99.90
52859;DHT22;38721;53.098;6.596;2023-01-15T11:34:19;7.20;99.90
52859;DHT22;38721;53.098;6.596;2023-01-15T11:36:59;7.20;99.90
52859;DHT22;38721;53.098;6.596;2023-01-15T11:39:26;7.30;99.90
52859;DHT22;38721;53.098;6.596;2023-01-15T11:42:00;7.20;99.90
52859;DHT22;38721;53.098;6.596;2023-01-15T11:44:55;7.30;99.90
52859;DHT22;38721;53.098;6.596;2023-01-15T11:47:50;7.30;99.90
52859;DHT22;38721;53.098;6.596;2023-01-15T11:50:51;7.30;99.90
52859;DHT22;38721;53.098;6.596;2023-01-15T11:53:24;7.40;99.90
52859;DHT22;38721;53.098;6.596;2023-01-15T11:55:59;7.40;99.90
52859;DHT22;38721;53.098;6.596;2023-01-15T11:58:33;7.40;99.90
52859;DHT22;38721;53.098;6.596;2023-01-15T12:01:03;7.50;99.90
52859;DHT22;38721;53.098;6.596;2023-01-15T12:03:30;7.60;99.90
52859;DHT22;38721;53.098;6.596;2023-01-15T12:06:01;7.60;99.90
52859;DHT22;38721;53.098;6.596;2023-01-15T12:11:47;7.50;99.90
52859;DHT22;38721;53.098;6.596;2023-01-15T12:22:49;7.40;99.90
52859;DHT22;38721;53.098;6.596;2023-01-15T12:28:20;7.50;99.90
52859;DHT22;38721;53.098;6.596;2023-01-15T12:31:03;7.50;99.90
52859;DHT22;38721;53.098;6.596;2023-01-15T12:33:45;7.50;99.90
52859;DHT22;38721;53.098;6.596;2023-01-15T12:36:20;7.60;99.90
52859;DHT22;38721;53.098;6.596;2023-01-15T12:38:50;7.50;99.90
52859;DHT22;38721;53.098;6.596;2023-01-15T12:41:40;7.40;99.90
52859;DHT22;38721;53.098;6.596;2023-01-15T12:44:40;7.30;99.90
52859;DHT22;38721;53.098;6.596;2023-01-15T12:47:44;7.10;99.90
52859;DHT22;38721;53.098;6.596;2023-01-15T12:52:49;7.00;99.90
52859;DHT22;38721;53.098;6.596;2023-01-15T12:55:24;7.00;99.90
52859;DHT22;38721;53.098;6.596;2023-01-15T12:57:56;6.90;99.90
52859;DHT22;38721;53.098;6.596;2023-01-15T13:00:28;6.80;99.90
52859;DHT22;38721;53.098;6.596;2023-01-15T13:03:04;6.60;99.90
52859;DHT22;38721;53.098;6.596;2023-01-15T13:05:44;6.50;99.90
52859;DHT22;38721;53.098;6.596;2023-01-15T13:10:56;6.40;99.90
52859;DHT22;38721;53.098;6.596;2023-01-15T13:13:31;5.20;99.90
52859;DHT22;38721;53.098;6.596;2023-01-15T13:16:21;4.80;99.90
52859;DHT22;38721;53.098;6.596;2023-01-15T13:19:07;4.90;99.90
52859;DHT22;38721;53.098;6.596;2023-01-15T13:21:36;5.00;99.90
52859;DHT22;38721;53.098;6.596;2023-01-15T13:27:05;5.10;99.90
52859;DHT22;38721;53.098;6.596;2023-01-15T13:32:10;6.70;99.90
52859;DHT22;38721;53.098;6.596;2023-01-15T13:34:56;6.90;99.90
52859;DHT22;38721;53.098;6.596;2023-01-15T13:37:26;7.20;99.90
52859;DHT22;38721;53.098;6.596;2023-01-15T13:39:57;7.50;99.90
52859;DHT22;38721;53.098;6.596;2023-01-15T13:42:26;7.50;99.90
52859;DHT22;38721;53.098;6.596;2023-01-15T13:47:49;7.60;99.90
52859;DHT22;38721;53.098;6.596;2023-01-15T13:50:29;7.70;99.90
52859;DHT22;38721;53.098;6.596;2023-01-15T13:53:25;7.70;99.90
52859;DHT22;38721;53.098;6.596;2023-01-15T13:55:54;7.70;99.90
52859;DHT22;38721;53.098;6.596;2023-01-15T13:58:27;7.70;99.90
52859;DHT22;38721;53.098;6.596;2023-01-15T14:04:06;7.80;99.90
52859;DHT22;38721;53.098;6.596;2023-01-15T14:06:43;7.80;99.90
52859;DHT22;38721;53.098;6.596;2023-01-15T14:09:30;7.80;99.90
52859;DHT22;38721;53.098;6.596;2023-01-15T14:12:24;7.70;99.90
52859;DHT22;38721;53.098;6.596;2023-01-15T14:20:54;7.90;99.90
52859;DHT22;38721;53.098;6.596;2023-01-15T14:29:56;8.10;99.90
52859;DHT22;38721;53.098;6.596;2023-01-15T14:32:48;8.10;99.90
52859;DHT22;38721;53.098;6.596;2023-01-15T14:35:21;8.10;99.90
52859;DHT22;38721;53.098;6.596;2023-01-15T14:37:48;8.10;99.90
52859;DHT22;38721;53.098;6.596;2023-01-15T14:40:23;8.10;99.90
52859;DHT22;38721;53.098;6.596;2023-01-15T14:42:52;8.20;99.90
52859;DHT22;38721;53.098;6.596;2023-01-15T14:45:44;8.20;99.90
52859;DHT22;38721;53.098;6.596;2023-01-15T14:48:38;8.20;99.90
52859;DHT22;38721;53.098;6.596;2023-01-15T14:53:38;8.20;99.90
52859;DHT22;38721;53.098;6.596;2023-01-15T15:04:20;8.20;99.90
52859;DHT22;38721;53.098;6.596;2023-01-15T15:07:02;8.20;99.90
52859;DHT22;38721;53.098;6.596;2023-01-15T15:09:45;8.20;99.90
52859;DHT22;38721;53.098;6.596;2023-01-15T15:23:18;8.00;99.90
52859;DHT22;38721;53.098;6.596;2023-01-15T15:26:02;8.00;99.90
52859;DHT22;38721;53.098;6.596;2023-01-15T15:28:28;8.00;99.90
52859;DHT22;38721;53.098;6.596;2023-01-15T15:30:58;8.00;99.90
52859;DHT22;38721;53.098;6.596;2023-01-15T15:33:39;8.00;99.90
52859;DHT22;38721;53.098;6.596;2023-01-15T15:36:06;7.90;99.90
52859;DHT22;38721;53.098;6.596;2023-01-15T15:38:32;8.00;99.90
52859;DHT22;38721;53.098;6.596;2023-01-15T15:41:03;7.90;99.90
52859;DHT22;38721;53.098;6.596;2023-01-15T15:43:51;8.00;99.90
52859;DHT22;38721;53.098;6.596;2023-01-15T15:46:36;8.00;99.90
52859;DHT22;38721;53.098;6.596;2023-01-15T15:49:21;8.00;99.90
52859;DHT22;38721;53.098;6.596;2023-01-15T15:51:51;7.90;99.90
52859;DHT22;38721;53.098;6.596;2023-01-15T15:54:24;7.90;99.90
52859;DHT22;38721;53.098;6.596;2023-01-15T15:59:27;8.00;99.90
52859;DHT22;38721;53.098;6.596;2023-01-15T16:01:54;7.90;99.90
52859;DHT22;38721;53.098;6.596;2023-01-15T16:04:21;7.90;99.90
52859;DHT22;38721;53.098;6.596;2023-01-15T16:06:48;7.80;99.90
52859;DHT22;38721;53.098;6.596;2023-01-15T16:09:19;7.80;99.90
52859;DHT22;38721;53.098;6.596;2023-01-15T16:11:46;7.70;99.90
52859;DHT22;38721;53.098;6.596;2023-01-15T16:14:12;7.70;99.90
52859;DHT22;38721;53.098;6.596;2023-01-15T16:16:42;7.70;99.90
52859;DHT22;38721;53.098;6.596;2023-01-15T16:19:13;7.60;99.90
52859;DHT22;38721;53.098;6.596;2023-01-15T16:21:40;7.50;99.90
52859;DHT22;38721;53.098;6.596;2023-01-15T16:24:17;7.40;99.90
52859;DHT22;38721;53.098;6.596;2023-01-15T16:26:56;7.40;99.90
52859;DHT22;38721;53.098;6.596;2023-01-15T16:29:25;7.30;99.90
52859;DHT22;38721;53.098;6.596;2023-01-15T16:31:51;7.40;99.90
52859;DHT22;38721;53.098;6.596;2023-01-15T16:36:50;7.20;99.90
52859;DHT22;38721;53.098;6.596;2023-01-15T16:39:22;7.20;99.90
52859;DHT22;38721;53.098;6.596;2023-01-15T16:41:49;7.00;99.90
52859;DHT22;38721;53.098;6.596;2023-01-15T16:44:49;7.00;99.90
52859;DHT22;38721;53.098;6.596;2023-01-15T16:47:28;6.90;99.90
52859;DHT22;38721;53.098;6.596;2023-01-15T16:52:57;6.80;99.90
52859;DHT22;38721;53.098;6.596;2023-01-15T17:00:34;6.70;99.90
52859;DHT22;38721;53.098;6.596;2023-01-15T17:02:59;6.60;99.90
52859;DHT22;38721;53.098;6.596;2023-01-15T17:05:25;6.50;99.90
52859;DHT22;38721;53.098;6.596;2023-01-15T17:07:51;6.40;99.90
52859;DHT22;38721;53.098;6.596;2023-01-15T17:10:20;6.50;99.90
52859;DHT22;38721;53.098;6.596;2023-01-15T17:12:49;6.40;99.90
52859;DHT22;38721;53.098;6.596;2023-01-15T17:17:43;6.30;99.90
52859;DHT22;38721;53.098;6.596;2023-01-15T17:20:11;6.30;99.90
52859;DHT22;38721;53.098;6.596;2023-01-15T17:22:40;6.20;99.90
52859;DHT22;38721;53.098;6.596;2023-01-15T17:25:26;6.20;99.90
52859;DHT22;38721;53.098;6.596;2023-01-15T17:27:55;6.20;99.90
52859;DHT22;38721;53.098;6.596;2023-01-15T17:30:25;6.10;99.90
52859;DHT22;38721;53.098;6.596;2023-01-15T17:32:58;6.00;99.90
52859;DHT22;38721;53.098;6.596;2023-01-15T17:35:26;6.00;99.90
52859;DHT22;38721;53.098;6.596;2023-01-15T17:37:52;5.90;99.90
52859;DHT22;38721;53.098;6.596;2023-01-15T17:40:17;5.80;99.90
52859;DHT22;38721;53.098;6.596;2023-01-15T17:42:43;5.90;99.90
52859;DHT22;38721;53.098;6.596;2023-01-15T17:45:24;5.80;99.90
52859;DHT22;38721;53.098;6.596;2023-01-15T17:47:50;5.80;99.90
52859;DHT22;38721;53.098;6.596;2023-01-15T17:50:16;5.70;99.90
52859;DHT22;38721;53.098;6.596;2023-01-15T17:52:42;5.80;99.90
52859;DHT22;38721;53.098;6.596;2023-01-15T17:55:13;5.70;99.90
52859;DHT22;38721;53.098;6.596;2023-01-15T17:57:58;5.70;99.90
52859;DHT22;38721;53.098;6.596;2023-01-15T18:00:43;5.60;99.90
52859;DHT22;38721;53.098;6.596;2023-01-15T18:03:28;5.60;99.90
52859;DHT22;38721;53.098;6.596;2023-01-15T18:06:13;5.40;99.90
52859;DHT22;38721;53.098;6.596;2023-01-15T18:08:45;5.40;99.90
52859;DHT22;38721;53.098;6.596;2023-01-15T18:11:12;5.50;99.90
52859;DHT22;38721;53.098;6.596;2023-01-15T18:13:37;5.40;99.90
52859;DHT22;38721;53.098;6.596;2023-01-15T18:16:06;5.60;99.90
52859;DHT22;38721;53.098;6.596;2023-01-15T18:18:32;5.60;99.90
52859;DHT22;38721;53.098;6.596;2023-01-15T18:20:59;5.60;99.90
52859;DHT22;38721;53.098;6.596;2023-01-15T18:23:24;5.60;99.90
52859;DHT22;38721;53.098;6.596;2023-01-15T18:25:51;5.60;99.90